Adams, Oklahoma
Current Conditions -  °F | °C
As of 4:35 PM on Friday 24 Oct 2014 (Local Time) from KLBL Reporting Station
Clear Clear  
Wind Chill: 31°   Ceiling: Unl
Heat Index: 31°   Visibility: 10mi
Dew Point:   Wind: 7mph
Humidity: 18%   Direction: 200°SSW
Pressure: 30.05"   Gusts: NA
Location:  36.76°N, 101.08°W
Report Text: KLBL 242135Z AUTO 20006KT 10SM CLR 31/04 A3005 RMK AO1
Loading
Personal Weather Stations






























Interactive Weather Map New forecast layout! Learn more

10-Day Weather Forecast

Advertisements
Track Severe Weather on mobile